Time;durP1;ratioP1;P1;durP2;ratioP2;P2;SDS_P1;SDS_P2;PMS_P1;PMS_P2;Temp;Humidity;BMP_temperature;BMP_pressure;BME280_temperature;BME280_humidity;BME280_pressure;Samples;Min_cycle;Max_cycle;Signal;HPM_P1;HPM_P2
2022/04/12 00:01:08;;;;;;;5.70;2.50;;;6.50;69.50;;;;;;4149589;28;20459;-81
2022/04/12 00:03:12;;;;;;;5.63;2.50;;;6.50;70.10;;;;;;4165531;28;20960;-80
2022/04/12 00:05:14;;;;;;;4.07;2.23;;;6.50;69.60;;;;;;4164576;28;20586;-80
2022/04/12 00:07:16;;;;;;;6.00;2.67;;;6.60;69.10;;;;;;4160467;28;20479;-81
2022/04/12 00:09:18;;;;;;;4.70;2.10;;;6.50;70.10;;;;;;4150448;28;20514;-80
2022/04/12 00:11:20;;;;;;;7.87;2.67;;;6.50;70.30;;;;;;4150859;28;20550;-80
2022/04/12 00:13:22;;;;;;;5.97;2.80;;;6.40;70.60;;;;;;4165073;28;20475;-80
2022/04/12 00:15:24;;;;;;;8.00;2.87;;;6.40;71.90;;;;;;4154015;28;20534;-80
2022/04/12 00:19:46;;;;;;;5.10;2.57;;;6.30;72.10;;;;;;4165232;28;20430;-80
2022/04/12 00:21:48;;;;;;;4.47;2.33;;;6.30;72.30;;;;;;4166288;28;20529;-80
2022/04/12 00:23:50;;;;;;;6.57;3.23;;;6.30;72.70;;;;;;4164442;28;20467;-80
2022/04/12 00:25:53;;;;;;;5.47;2.60;;;6.30;72.40;;;;;;4165927;28;20446;-80
2022/04/12 00:27:56;;;;;;;6.90;2.20;;;6.20;72.40;;;;;;4165772;28;20467;-81
2022/04/12 00:29:58;;;;;;;4.50;2.70;;;6.30;72.40;;;;;;4165616;28;20467;-80
2022/04/12 00:32:00;;;;;;;6.73;2.47;;;6.20;72.80;;;;;;4163633;28;20462;-80
2022/04/12 00:34:02;;;;;;;7.17;2.60;;;6.20;73.20;;;;;;4158640;28;20493;-80
2022/04/12 00:36:06;;;;;;;4.17;2.33;;;6.20;74.10;;;;;;4150632;28;20451;-80
2022/04/12 00:38:17;;;;;;;5.40;2.40;;;6.20;74.60;;;;;;4154293;28;20469;-80
2022/04/12 00:40:20;;;;;;;3.93;2.33;;;6.10;75.20;;;;;;4155384;28;20510;-80
2022/04/12 00:42:22;;;;;;;5.33;2.30;;;6.10;75.40;;;;;;4163709;28;20493;-79
2022/04/12 00:44:24;;;;;;;6.07;2.67;;;6.10;76.10;;;;;;4164869;28;20608;-80
2022/04/12 00:46:26;;;;;;;5.47;2.63;;;6.10;75.60;;;;;;4165025;28;20448;-80
2022/04/12 00:48:31;;;;;;;5.43;2.33;;;6.00;76.30;;;;;;4160474;28;20466;-80
2022/04/12 00:50:33;;;;;;;6.07;2.60;;;6.00;75.50;;;;;;4161817;28;20948;-80
2022/04/12 00:52:39;;;;;;;5.73;2.77;;;6.00;76.10;;;;;;4149384;28;20463;-79
2022/04/12 00:54:42;;;;;;;5.87;2.77;;;6.00;76.40;;;;;;4151498;28;20551;-80
2022/04/12 00:56:44;;;;;;;8.67;2.97;;;6.00;76.50;;;;;;4165704;28;20466;-80
2022/04/12 00:58:49;;;;;;;4.60;2.33;;;5.90;77.90;;;;;;4165139;28;20463;-80
2022/04/12 01:00:51;;;;;;;5.00;2.50;;;5.90;78.10;;;;;;4148845;28;20467;-80
2022/04/12 01:02:53;;;;;;;5.53;2.60;;;5.90;78.80;;;;;;4150779;28;20495;-80
2022/04/12 01:04:55;;;;;;;8.47;3.20;;;5.90;79.00;;;;;;4160459;28;20926;-80
2022/04/12 01:06:57;;;;;;;7.47;2.47;;;5.90;79.80;;;;;;4164772;28;20524;-80
2022/04/12 01:09:04;;;;;;;5.93;2.40;;;5.90;78.30;;;;;;4160941;28;20470;-80
2022/04/12 01:11:07;;;;;;;5.93;2.90;;;5.90;79.60;;;;;;4165352;28;20975;-80
2022/04/12 01:13:09;;;;;;;5.20;2.77;;;5.80;79.60;;;;;;4165292;28;20952;-80
2022/04/12 01:15:12;;;;;;;4.43;2.43;;;5.80;81.60;;;;;;4164914;28;21030;-80
2022/04/12 01:17:15;;;;;;;7.03;2.50;;;5.80;81.70;;;;;;4163947;28;20485;-80
2022/04/12 01:19:17;;;;;;;7.90;2.37;;;5.70;81.90;;;;;;4165211;28;20512;-80
2022/04/12 01:21:20;;;;;;;4.70;2.30;;;5.70;80.70;;;;;;4165329;28;20466;-80
2022/04/12 01:23:28;;;;;;;6.10;2.90;;;5.70;80.80;;;;;;4161260;28;20491;-80
2022/04/12 01:25:31;;;;;;;7.43;2.60;;;5.70;81.70;;;;;;4152685;28;20498;-80
2022/04/12 01:27:33;;;;;;;6.30;2.40;;;5.70;81.50;;;;;;4158295;28;20454;-80
2022/04/12 01:29:36;;;;;;;7.20;2.87;;;5.70;81.70;;;;;;4154839;28;20462;-80
2022/04/12 01:31:38;;;;;;;6.37;2.40;;;5.60;83.80;;;;;;4147765;28;21016;-79
2022/04/12 01:33:40;;;;;;;5.13;2.73;;;5.70;83.60;;;;;;4151569;28;20450;-80
2022/04/12 01:35:42;;;;;;;3.60;2.50;;;5.60;83.60;;;;;;4149178;28;20475;-79
2022/04/12 01:37:44;;;;;;;6.93;2.70;;;5.60;83.10;;;;;;4162974;28;20468;-80
2022/04/12 01:39:46;;;;;;;4.90;2.47;;;5.60;84.30;;;;;;4163693;28;20442;-80
2022/04/12 01:41:49;;;;;;;3.33;2.20;;;5.50;83.80;;;;;;4164676;28;20466;-80
2022/04/12 01:43:51;;;;;;;6.00;2.40;;;5.70;83.70;;;;;;4162211;28;21127;-79
2022/04/12 01:45:52;;;;;;;6.13;2.27;;;5.60;84.10;;;;;;4165652;28;20454;-80
2022/04/12 01:47:55;;;;;;;4.53;2.30;;;5.50;83.80;;;;;;4164486;28;20468;-80
2022/04/12 01:49:57;;;;;;;4.77;2.27;;;5.50;84.60;;;;;;4162582;28;20471;-80
2022/04/12 01:52:02;;;;;;;6.07;2.53;;;5.70;87.10;;;;;;4150478;28;20494;-80
2022/04/12 01:54:04;;;;;;;4.43;2.40;;;5.50;86.30;;;;;;4156450;28;20494;-80
2022/04/12 01:56:06;;;;;;;4.73;2.30;;;5.50;87.10;;;;;;4160267;28;20801;-80
2022/04/12 01:58:09;;;;;;;6.23;2.60;;;5.40;88.30;;;;;;4163442;28;20465;-80
2022/04/12 02:00:12;;;;;;;5.23;2.87;;;5.40;89.00;;;;;;4149507;28;20460;-80
2022/04/12 02:02:13;;;;;;;6.37;2.37;;;5.40;90.60;;;;;;4148243;28;20497;-80
2022/04/12 02:04:15;;;;;;;6.90;2.23;;;5.40;90.50;;;;;;4148306;28;20999;-80
2022/04/12 02:06:17;;;;;;;4.97;2.23;;;5.30;90.80;;;;;;4161494;28;20532;-80
2022/04/12 02:08:21;;;;;;;4.27;2.13;;;5.30;90.80;;;;;;4160828;28;20875;-79
2022/04/12 02:10:23;;;;;;;7.17;2.50;;;5.30;90.80;;;;;;4164418;28;20461;-80
2022/04/12 02:12:25;;;;;;;4.77;2.53;;;5.30;91.20;;;;;;4163315;28;20531;-80
2022/04/12 02:14:28;;;;;;;7.83;2.97;;;5.30;91.50;;;;;;4163641;28;20511;-80
2022/04/12 02:16:30;;;;;;;4.90;2.53;;;5.30;91.60;;;;;;4163326;28;20523;-80
2022/04/12 02:18:32;;;;;;;6.50;2.87;;;5.30;91.80;;;;;;4156677;28;20950;-80
2022/04/12 02:20:33;;;;;;;5.63;2.67;;;5.20;91.30;;;;;;4164149;28;20516;-79
2022/04/12 02:22:38;;;;;;;5.97;2.23;;;5.20;92.20;;;;;;4163172;28;20450;-80
2022/04/12 02:24:39;;;;;;;4.30;2.50;;;5.30;92.80;;;;;;4150319;28;20474;-79
2022/04/12 02:26:41;;;;;;;6.37;2.87;;;5.20;92.80;;;;;;4148115;28;20474;-79
2022/04/12 02:28:43;;;;;;;6.63;2.70;;;5.20;93.50;;;;;;4153667;28;20467;-80
2022/04/12 02:30:49;;;;;;;4.80;2.60;;;5.20;92.70;;;;;;4164334;28;20466;-80
2022/04/12 02:32:50;;;;;;;4.60;2.40;;;5.20;92.70;;;;;;4162673;28;20481;-80
2022/04/12 02:34:52;;;;;;;4.90;2.73;;;5.20;93.30;;;;;;4162356;28;20494;-79
2022/04/12 02:36:54;;;;;;;5.10;2.60;;;5.10;93.20;;;;;;4149464;28;20467;-80
2022/04/12 02:38:56;;;;;;;6.40;2.70;;;5.10;93.80;;;;;;4156501;28;20988;-80
2022/04/12 02:40:58;;;;;;;8.03;2.57;;;5.10;94.20;;;;;;4162831;28;20497;-80
2022/04/12 02:43:02;;;;;;;5.50;2.63;;;5.10;94.80;;;;;;4162586;28;20500;-80
2022/04/12 02:45:05;;;;;;;7.43;2.70;;;5.10;94.60;;;;;;4159503;28;20570;-80
2022/04/12 02:47:08;;;;;;;5.37;2.50;;;5.00;94.80;;;;;;4151070;28;20488;-79
2022/04/12 02:49:10;;;;;;;5.03;2.57;;;5.00;94.90;;;;;;4160524;28;20834;-80
2022/04/12 02:51:12;;;;;;;7.13;3.10;;;5.00;94.90;;;;;;4166735;28;20442;-80
2022/04/12 02:53:14;;;;;;;5.40;2.80;;;5.00;94.70;;;;;;4163318;28;21149;-80
2022/04/12 02:55:15;;;;;;;6.30;2.87;;;5.00;94.60;;;;;;4156625;28;20478;-80
2022/04/12 02:57:17;;;;;;;6.87;2.80;;;5.00;95.10;;;;;;4167704;28;20454;-80
2022/04/12 02:59:19;;;;;;;5.83;2.97;;;5.00;95.10;;;;;;4167578;28;20942;-80
2022/04/12 03:01:21;;;;;;;6.77;3.27;;;5.00;95.10;;;;;;4167787;28;20519;-80
2022/04/12 03:03:24;;;;;;;5.83;2.73;;;4.90;95.10;;;;;;4165621;28;20496;-80
2022/04/12 03:05:26;;;;;;;6.83;3.03;;;4.90;95.30;;;;;;4166903;28;20520;-80
2022/04/12 03:07:27;;;;;;;5.17;2.93;;;5.00;95.70;;;;;;4167163;28;20485;-80
2022/04/12 03:09:29;;;;;;;6.60;3.10;;;4.90;95.90;;;;;;4162753;28;20462;-80
2022/04/12 03:11:31;;;;;;;7.33;2.37;;;4.90;96.10;;;;;;4162474;28;20517;-80
2022/04/12 03:13:33;;;;;;;4.03;2.50;;;4.90;95.70;;;;;;4159049;28;20468;-80
2022/04/12 03:15:34;;;;;;;5.47;2.70;;;4.90;95.90;;;;;;4169769;28;20912;-80
2022/04/12 03:17:37;;;;;;;7.27;2.80;;;4.90;96.10;;;;;;4168376;28;20508;-80
2022/04/12 03:19:40;;;;;;;6.87;3.00;;;4.90;96.30;;;;;;4163087;28;20513;-79
2022/04/12 03:21:42;;;;;;;6.93;2.60;;;4.90;96.50;;;;;;4170659;28;20497;-80
2022/04/12 03:23:44;;;;;;;5.20;2.50;;;4.80;96.50;;;;;;4166910;28;20497;-80
2022/04/12 03:25:46;;;;;;;6.50;2.47;;;4.80;96.50;;;;;;4169389;28;20740;-79
2022/04/12 03:27:48;;;;;;;5.27;2.83;;;4.80;97.30;;;;;;4159678;28;20470;-79
2022/04/12 03:29:50;;;;;;;4.53;2.90;;;4.80;97.50;;;;;;4157495;28;20469;-79
2022/04/12 03:31:51;;;;;;;5.27;2.80;;;4.80;97.70;;;;;;4158573;28;20450;-80
2022/04/12 03:33:53;;;;;;;6.07;2.87;;;4.70;98.50;;;;;;4164331;28;20461;-80
2022/04/12 03:35:59;;;;;;;6.90;3.17;;;4.70;98.90;;;;;;4168131;28;20454;-80
2022/04/12 03:38:01;;;;;;;7.40;2.80;;;4.70;99.20;;;;;;4167197;28;20484;-80
2022/04/12 03:40:04;;;;;;;4.83;2.77;;;4.70;99.30;;;;;;4148130;28;20968;-80
2022/04/12 03:42:11;;;;;;;7.73;2.67;;;4.70;99.50;;;;;;4163361;28;20511;-80
2022/04/12 03:44:13;;;;;;;8.80;3.00;;;4.70;99.60;;;;;;4162789;28;20516;-80
2022/04/12 03:46:15;;;;;;;9.53;2.83;;;4.60;99.80;;;;;;4164330;28;20492;-80
2022/04/12 03:48:17;;;;;;;5.70;2.50;;;4.60;99.90;;;;;;4148618;28;20477;-80
2022/04/12 03:50:19;;;;;;;4.30;2.60;;;4.80;99.90;;;;;;4156417;28;20474;-80
2022/04/12 03:52:22;;;;;;;4.93;2.40;;;4.60;99.90;;;;;;4164312;28;20484;-80
2022/04/12 03:54:23;;;;;;;5.53;3.17;;;4.60;99.90;;;;;;4160926;28;20557;-80
2022/04/12 03:56:28;;;;;;;9.20;2.73;;;4.60;99.90;;;;;;4157016;28;20474;-80
2022/04/12 03:58:30;;;;;;;4.97;2.33;;;4.50;99.90;;;;;;4148688;28;20526;-80
2022/04/12 04:00:33;;;;;;;6.50;3.30;;;4.60;99.90;;;;;;4148561;28;20458;-80
2022/04/12 04:02:35;;;;;;;6.20;2.63;;;4.70;99.90;;;;;;4163636;28;20452;-80
2022/04/12 04:04:37;;;;;;;4.13;2.73;;;4.60;99.90;;;;;;4163973;28;20592;-80
2022/04/12 04:06:39;;;;;;;3.93;2.17;;;4.50;99.90;;;;;;4164582;28;20520;-80
2022/04/12 04:08:42;;;;;;;5.60;2.73;;;4.50;99.90;;;;;;4159326;28;20474;-80
2022/04/12 04:10:44;;;;;;;7.87;2.63;;;4.50;99.90;;;;;;4164196;28;20442;-80
2022/04/12 04:12:46;;;;;;;7.83;3.20;;;4.50;99.90;;;;;;4159553;28;20497;-80
2022/04/12 04:14:48;;;;;;;4.73;2.70;;;4.50;99.90;;;;;;4164325;28;20520;-80
2022/04/12 04:16:50;;;;;;;6.43;2.90;;;4.40;99.90;;;;;;4164470;28;20465;-80
2022/04/12 04:18:52;;;;;;;6.13;3.00;;;4.50;99.90;;;;;;4165817;28;20496;-80
2022/04/12 04:20:53;;;;;;;5.27;2.80;;;4.50;99.90;;;;;;4168856;28;20515;-80
2022/04/12 04:22:55;;;;;;;5.00;2.60;;;4.40;99.90;;;;;;4162649;28;20473;-80
2022/04/12 04:24:58;;;;;;;8.10;3.00;;;4.40;99.90;;;;;;4158924;28;20496;-80
2022/04/12 04:27:00;;;;;;;6.97;2.93;;;4.30;99.90;;;;;;4165467;28;20551;-80
2022/04/12 04:29:02;;;;;;;7.47;3.10;;;4.40;99.90;;;;;;4165092;28;20519;-79
2022/04/12 04:31:04;;;;;;;5.17;2.87;;;4.40;99.90;;;;;;4151053;28;20896;-80
2022/04/12 04:33:07;;;;;;;7.47;2.97;;;4.50;99.90;;;;;;4165048;28;20457;-80
2022/04/12 04:35:10;;;;;;;3.97;2.63;;;4.40;99.90;;;;;;4166676;28;20482;-80
2022/04/12 04:37:12;;;;;;;7.23;2.93;;;4.40;99.90;;;;;;4166547;28;20458;-80
2022/04/12 04:39:13;;;;;;;4.97;3.00;;;4.50;99.90;;;;;;4151733;28;20467;-80
2022/04/12 04:41:17;;;;;;;4.53;2.67;;;4.20;99.90;;;;;;4148011;28;20466;-80
2022/04/12 04:43:18;;;;;;;9.13;4.50;;;4.40;99.90;;;;;;4157475;28;20466;-80
2022/04/12 04:45:21;;;;;;;10.13;4.33;;;4.30;99.90;;;;;;4167588;28;20540;-80
2022/04/12 04:47:22;;;;;;;9.77;3.93;;;4.30;99.90;;;;;;4150188;28;20936;-80
2022/04/12 04:49:24;;;;;;;12.23;3.37;;;4.30;99.90;;;;;;4162469;28;20813;-80
2022/04/12 04:51:27;;;;;;;9.20;3.50;;;4.40;99.90;;;;;;4155385;28;20469;-80
2022/04/12 04:53:28;;;;;;;9.13;3.50;;;4.30;99.90;;;;;;4165127;28;20466;-79
2022/04/12 04:55:31;;;;;;;7.50;3.47;;;4.40;99.90;;;;;;4166696;28;20468;-80
2022/04/12 04:57:38;;;;;;;8.23;3.27;;;4.40;99.90;;;;;;4163631;28;20458;-80
2022/04/12 04:59:40;;;;;;;6.63;3.30;;;4.40;99.90;;;;;;4158291;28;20667;-79
2022/04/12 05:01:42;;;;;;;7.40;2.80;;;4.40;99.90;;;;;;4164434;28;20481;-79
2022/04/12 05:03:44;;;;;;;8.43;2.83;;;4.40;99.90;;;;;;4163991;28;20481;-79
2022/04/12 05:05:46;;;;;;;6.40;3.10;;;4.60;99.90;;;;;;4165040;28;20504;-79
2022/04/12 05:07:49;;;;;;;6.70;3.20;;;4.40;99.90;;;;;;4160075;28;20835;-80
2022/04/12 05:09:52;;;;;;;10.60;5.87;;;4.50;99.90;;;;;;4166940;28;20519;-79
2022/04/12 05:11:54;;;;;;;12.77;6.07;;;4.50;99.90;;;;;;4166671;28;20466;-79
2022/04/12 05:13:57;;;;;;;11.43;4.33;;;4.50;99.90;;;;;;4166304;28;21025;-80
2022/04/12 05:15:59;;;;;;;7.83;3.37;;;4.50;99.90;;;;;;4185280;22;20835;-81
2022/04/12 05:18:00;;;;;;;7.93;3.57;;;4.50;99.90;;;;;;4173307;28;20949;-80
2022/04/12 05:20:03;;;;;;;7.57;3.50;;;4.50;99.90;;;;;;4166764;28;20501;-81
2022/04/12 05:22:05;;;;;;;11.83;3.93;;;4.50;99.90;;;;;;4165624;28;20864;-80
2022/04/12 05:24:07;;;;;;;9.23;3.40;;;4.60;99.90;;;;;;4162224;28;20490;-79
2022/04/12 05:26:09;;;;;;;7.00;3.10;;;4.60;99.90;;;;;;4171844;28;20973;-80
2022/04/12 05:28:10;;;;;;;7.00;3.53;;;4.60;99.90;;;;;;4164704;28;20461;-80
2022/04/12 05:30:14;;;;;;;7.53;3.40;;;4.60;99.90;;;;;;4164996;28;20440;-80
2022/04/12 05:32:16;;;;;;;8.33;3.40;;;4.60;99.90;;;;;;4164295;28;20469;-80
2022/04/12 05:34:18;;;;;;;5.93;3.30;;;4.60;99.90;;;;;;4156706;28;20442;-80
2022/04/12 05:36:20;;;;;;;14.13;3.70;;;4.70;99.90;;;;;;4148258;28;20543;-80
2022/04/12 05:38:22;;;;;;;8.87;3.37;;;4.70;99.90;;;;;;4155207;28;20482;-80
2022/04/12 05:40:24;;;;;;;10.73;3.20;;;4.70;99.90;;;;;;4171845;28;20453;-83
2022/04/12 05:42:26;;;;;;;10.97;3.83;;;4.70;99.90;;;;;;4164137;28;20474;-80
2022/04/12 05:44:28;;;;;;;9.00;3.77;;;4.70;99.90;;;;;;4151762;28;21026;-80
2022/04/12 05:46:31;;;;;;;7.63;3.50;;;4.80;99.90;;;;;;4160089;28;20553;-82
2022/04/12 05:48:33;;;;;;;5.97;3.40;;;4.90;99.90;;;;;;4159465;28;20478;-80
2022/04/12 05:50:35;;;;;;;7.97;3.60;;;4.80;99.90;;;;;;4155812;28;20470;-80
2022/04/12 05:52:38;;;;;;;8.73;3.70;;;4.80;99.90;;;;;;4161618;28;20472;-80
2022/04/12 05:54:40;;;;;;;6.30;3.30;;;4.80;99.90;;;;;;4166822;28;20963;-82
2022/04/12 05:56:42;;;;;;;6.77;3.27;;;4.90;99.90;;;;;;4162660;28;20458;-80
2022/04/12 05:58:43;;;;;;;5.20;3.27;;;4.90;99.90;;;;;;4166362;28;20528;-80
2022/04/12 06:00:45;;;;;;;8.60;3.33;;;4.90;99.90;;;;;;4151288;28;20486;-80
2022/04/12 06:02:49;;;;;;;5.30;3.40;;;4.90;99.90;;;;;;4163610;28;20457;-81
2022/04/12 06:04:51;;;;;;;9.07;3.93;;;5.00;99.90;;;;;;4165464;28;20502;-81
2022/04/12 06:06:52;;;;;;;13.93;4.60;;;4.80;99.90;;;;;;4165468;28;20454;-83
2022/04/12 06:08:54;;;;;;;8.93;4.23;;;5.10;99.90;;;;;;4166166;28;20458;-80
2022/04/12 06:10:56;;;;;;;7.47;3.63;;;5.10;99.90;;;;;;4170975;28;20469;-80
2022/04/12 06:12:58;;;;;;;7.07;3.47;;;5.10;99.90;;;;;;4169851;28;20458;-81
2022/04/12 06:14:59;;;;;;;6.73;3.37;;;5.20;99.90;;;;;;4165225;28;20506;-81
2022/04/12 06:17:01;;;;;;;9.83;3.50;;;5.20;99.90;;;;;;4177141;28;20470;-80
2022/04/12 06:19:04;;;;;;;7.17;2.93;;;5.50;99.90;;;;;;4162518;28;20489;-82
2022/04/12 06:21:06;;;;;;;9.37;3.73;;;5.30;99.90;;;;;;4172172;28;20449;-80
2022/04/12 06:23:08;;;;;;;11.20;3.23;;;5.30;99.90;;;;;;4169834;28;20805;-80
2022/04/12 06:25:12;;;;;;;7.63;3.50;;;5.30;99.90;;;;;;4155657;28;20506;-80
2022/04/12 06:27:13;;;;;;;7.90;3.77;;;5.60;99.90;;;;;;4167275;28;20468;-81
2022/04/12 06:29:15;;;;;;;8.93;3.60;;;5.40;99.90;;;;;;4170913;28;20470;-82
2022/04/12 06:31:17;;;;;;;8.90;3.80;;;5.50;99.90;;;;;;4170666;28;20462;-81
2022/04/12 06:33:19;;;;;;;5.83;3.63;;;5.50;99.90;;;;;;4170933;28;20489;-80
2022/04/12 06:35:22;;;;;;;6.73;3.57;;;6.40;99.90;;;;;;4165137;28;20896;-82
2022/04/12 06:37:28;;;;;;;8.97;3.47;;;5.60;99.90;;;;;;4169241;28;20462;-82
2022/04/12 06:39:30;;;;;;;6.70;3.10;;;5.60;99.90;;;;;;4163309;28;20503;-82
2022/04/12 06:41:32;;;;;;;6.17;3.33;;;6.10;99.90;;;;;;4170703;28;20442;-82
2022/04/12 06:43:33;;;;;;;7.73;3.60;;;5.70;99.90;;;;;;4165889;28;20562;-81
2022/04/12 06:45:37;;;;;;;8.17;3.27;;;5.80;99.90;;;;;;4172749;28;20650;-83
2022/04/12 06:47:40;;;;;;;7.67;3.70;;;5.80;99.90;;;;;;4167992;28;20490;-83
2022/04/12 06:49:43;;;;;;;8.20;3.87;;;5.80;99.90;;;;;;4155084;28;20833;-82
2022/04/12 06:51:46;;;;;;;10.60;4.13;;;5.80;99.90;;;;;;4170862;28;20465;-82
2022/04/12 06:53:50;;;;;;;9.90;4.00;;;5.90;99.90;;;;;;4172463;28;20458;-83
2022/04/12 06:55:52;;;;;;;6.10;3.80;;;5.90;99.90;;;;;;4171095;28;20499;-82
2022/04/12 06:57:54;;;;;;;8.77;3.27;;;6.00;99.90;;;;;;4171523;28;20476;-82
2022/04/12 06:59:56;;;;;;;10.73;3.93;;;6.00;99.90;;;;;;4178384;28;20460;-83
2022/04/12 07:01:57;;;;;;;7.23;3.57;;;6.10;99.90;;;;;;4167383;28;20599;-82
2022/04/12 07:03:59;;;;;;;8.93;3.53;;;6.10;99.90;;;;;;4167873;28;20459;-83
2022/04/12 07:06:01;;;;;;;5.23;3.43;;;6.20;99.90;;;;;;4166959;28;20974;-82
2022/04/12 07:08:05;;;;;;;7.40;3.70;;;6.20;99.90;;;;;;4153426;28;20961;-82
2022/04/12 07:10:09;;;;;;;8.97;3.50;;;6.20;99.90;;;;;;4151857;28;20901;-82
2022/04/12 07:12:10;;;;;;;6.63;3.30;;;6.20;99.90;;;;;;4167419;28;20591;-82
2022/04/12 07:14:12;;;;;;;5.60;3.10;;;6.30;99.90;;;;;;4166629;28;20480;-83
2022/04/12 07:16:14;;;;;;;5.63;3.30;;;6.40;99.90;;;;;;4167424;28;20488;-82
2022/04/12 07:18:16;;;;;;;5.67;3.27;;;6.40;99.90;;;;;;4172191;28;20484;-82
2022/04/12 07:20:17;;;;;;;7.97;3.67;;;6.50;99.90;;;;;;4179052;28;20512;-81
2022/04/12 07:22:19;;;;;;;8.17;3.37;;;6.50;99.90;;;;;;4177297;28;20457;-80
2022/04/12 07:24:22;;;;;;;7.37;4.10;;;6.50;99.90;;;;;;4168698;28;21003;-81
2022/04/12 07:26:24;;;;;;;6.93;3.97;;;6.50;99.90;;;;;;4165970;28;20467;-80
2022/04/12 07:28:27;;;;;;;8.87;3.97;;;6.70;99.70;;;;;;4158381;28;20477;-80
2022/04/12 07:30:29;;;;;;;7.13;3.37;;;6.80;99.20;;;;;;4163667;28;20460;-82
2022/04/12 07:32:31;;;;;;;5.33;3.13;;;6.80;98.30;;;;;;4167222;28;20466;-80
2022/04/12 07:34:33;;;;;;;5.77;3.03;;;6.90;98.70;;;;;;4166470;28;20480;-80
2022/04/12 07:36:39;;;;;;;6.53;3.20;;;7.00;97.00;;;;;;4168159;28;20556;-80
2022/04/12 07:38:41;;;;;;;5.87;3.23;;;7.10;96.20;;;;;;4163152;28;20477;-81
2022/04/12 07:40:45;;;;;;;8.03;3.30;;;7.20;96.80;;;;;;4150919;28;20938;-80
2022/04/12 07:42:47;;;;;;;5.80;3.30;;;7.20;97.20;;;;;;4163969;28;20483;-82
2022/04/12 07:44:49;;;;;;;6.97;3.70;;;7.40;97.30;;;;;;4174878;28;20500;-80
2022/04/12 07:46:51;;;;;;;4.87;3.00;;;7.50;96.90;;;;;;4179718;28;20553;-80
2022/04/12 07:48:53;;;;;;;8.80;3.70;;;7.60;95.30;;;;;;4171257;28;21036;-80
2022/04/12 07:50:55;;;;;;;9.47;3.50;;;7.60;91.60;;;;;;4155304;28;20478;-79
2022/04/12 07:52:57;;;;;;;7.23;3.67;;;7.90;90.80;;;;;;4164698;28;20462;-81
2022/04/12 07:54:58;;;;;;;6.63;3.63;;;8.00;87.40;;;;;;4173387;28;20480;-81
2022/04/12 07:57:02;;;;;;;7.30;3.80;;;8.10;87.40;;;;;;4173581;28;20461;-82
2022/04/12 07:59:06;;;;;;;5.73;3.50;;;8.30;85.50;;;;;;4177276;28;20820;-82
2022/04/12 08:01:08;;;;;;;5.00;2.90;;;8.90;84.10;;;;;;4176740;28;20556;-83
2022/04/12 08:03:10;;;;;;;6.10;3.10;;;8.50;81.90;;;;;;4175160;28;20796;-81
2022/04/12 08:05:11;;;;;;;6.63;3.13;;;8.50;81.60;;;;;;4173734;28;20503;-82
2022/04/12 08:07:13;;;;;;;5.20;3.27;;;8.70;79.60;;;;;;4174138;28;20480;-81
2022/04/12 08:09:15;;;;;;;7.07;3.43;;;8.90;78.70;;;;;;4169538;28;20987;-81
2022/04/12 08:11:17;;;;;;;6.80;3.03;;;9.00;75.60;;;;;;4170425;28;20462;-81
2022/04/12 08:13:20;;;;;;;7.23;3.53;;;9.00;73.20;;;;;;4174263;28;20484;-82
2022/04/12 08:15:22;;;;;;;5.77;3.23;;;9.10;72.70;;;;;;4172187;28;20482;-81
2022/04/12 08:17:24;;;;;;;7.43;2.90;;;9.50;72.00;;;;;;4160869;28;20211;-81
2022/04/12 08:19:26;;;;;;;9.27;3.43;;;9.30;71.20;;;;;;4164439;28;20207;-79
2022/04/12 08:21:36;;;;;;;7.77;3.07;;;9.40;72.10;;;;;;4175395;28;20219;-83
2022/04/12 08:23:38;;;;;;;7.47;3.33;;;9.50;69.60;;;;;;4175416;28;20469;-79
2022/04/12 08:25:40;;;;;;;5.90;3.20;;;9.60;68.90;;;;;;4168200;28;20684;-78
2022/04/12 08:27:42;;;;;;;9.07;3.60;;;9.70;66.70;;;;;;4151390;28;20208;-79
2022/04/12 08:29:46;;;;;;;6.83;3.10;;;9.70;66.10;;;;;;4166418;28;20217;-81
2022/04/12 08:31:49;;;;;;;9.97;3.50;;;9.70;66.60;;;;;;4174240;28;20223;-81
2022/04/12 08:33:50;;;;;;;6.73;3.30;;;9.90;65.60;;;;;;4169336;28;20207;-79
2022/04/12 08:35:52;;;;;;;8.87;3.20;;;9.90;65.00;;;;;;4150993;28;20651;-78
2022/04/12 08:37:54;;;;;;;7.90;3.60;;;10.00;65.40;;;;;;4150346;28;20225;-79
2022/04/12 08:39:56;;;;;;;6.17;3.60;;;10.00;64.80;;;;;;4151103;28;20220;-81
2022/04/12 08:41:59;;;;;;;6.20;3.80;;;10.00;65.20;;;;;;4156324;28;20215;-83
2022/04/12 08:44:01;;;;;;;7.07;3.53;;;10.10;65.00;;;;;;4158746;28;20222;-79
2022/04/12 08:46:06;;;;;;;5.43;3.17;;;10.10;62.70;;;;;;4166100;28;20235;-82
2022/04/12 08:48:09;;;;;;;9.13;3.10;;;10.20;63.20;;;;;;4162227;28;20220;-79
2022/04/12 08:50:12;;;;;;;8.73;2.93;;;10.20;63.00;;;;;;4159930;28;20223;-81
2022/04/12 08:52:15;;;;;;;6.50;3.23;;;10.30;62.40;;;;;;4160767;28;20233;-82
2022/04/12 08:54:17;;;;;;;8.97;3.63;;;10.60;62.30;;;;;;4171491;28;20216;-81
2022/04/12 08:56:20;;;;;;;9.63;3.90;;;10.50;61.70;;;;;;4168095;28;20266;-80
2022/04/12 08:58:22;;;;;;;8.70;4.20;;;10.50;61.00;;;;;;4156911;28;20227;-78
2022/04/12 09:00:26;;;;;;;12.00;3.70;;;10.50;61.20;;;;;;4150935;28;20231;-83
2022/04/12 09:02:29;;;;;;;8.30;3.73;;;10.60;61.50;;;;;;4158700;28;20609;-82
2022/04/12 09:04:33;;;;;;;7.07;3.30;;;10.60;62.30;;;;;;4179264;28;20248;-82
2022/04/12 09:06:35;;;;;;;5.73;3.17;;;10.70;60.80;;;;;;4171216;28;20217;-81
2022/04/12 09:08:37;;;;;;;6.37;2.93;;;10.70;60.30;;;;;;4158706;28;20295;-78
2022/04/12 09:10:39;;;;;;;6.80;3.40;;;10.80;60.50;;;;;;4165895;28;20213;-78
2022/04/12 09:12:41;;;;;;;10.00;3.50;;;10.90;60.50;;;;;;4167053;28;20211;-81
2022/04/12 09:14:44;;;;;;;9.30;3.27;;;10.90;59.10;;;;;;4160737;28;20232;-82
2022/04/12 09:16:47;;;;;;;8.03;3.30;;;11.00;57.70;;;;;;4160903;28;20210;-80
2022/04/12 09:18:50;;;;;;;6.97;2.90;;;11.10;57.10;;;;;;4160323;28;20248;-81
2022/04/12 09:20:57;;;;;;;6.20;2.80;;;11.20;56.70;;;;;;4171909;28;20213;-83
2022/04/12 09:23:01;;;;;;;6.53;2.63;;;11.40;56.80;;;;;;4173217;28;20205;-83
2022/04/12 09:25:05;;;;;;;7.73;2.47;;;11.30;56.70;;;;;;4179515;28;20232;-81
2022/04/12 09:27:12;;;;;;;5.80;2.87;;;11.50;55.70;;;;;;4174375;28;20213;-82
2022/04/12 09:29:15;;;;;;;12.53;3.00;;;11.60;54.90;;;;;;4172214;28;20218;-81
2022/04/12 09:31:18;;;;;;;5.50;2.53;;;11.70;54.00;;;;;;4173290;28;20244;-81
2022/04/12 09:33:36;;;;;;;6.00;2.63;;;11.80;53.20;;;;;;4173545;28;20211;-81
2022/04/12 09:35:40;;;;;;;3.40;2.17;;;12.00;52.60;;;;;;4166800;28;20229;-81
2022/04/12 09:37:43;;;;;;;6.10;2.40;;;12.00;51.50;;;;;;4172565;28;20209;-82
2022/04/12 09:39:47;;;;;;;6.07;2.10;;;12.20;50.90;;;;;;4176291;28;20206;-81
2022/04/12 09:41:50;;;;;;;5.67;2.20;;;12.10;50.50;;;;;;4171918;28;20209;-83
2022/04/12 09:43:56;;;;;;;5.77;2.33;;;12.40;49.80;;;;;;4167443;28;20314;-81
2022/04/12 09:46:06;;;;;;;4.80;2.30;;;12.60;49.50;;;;;;4162673;28;20230;-81
2022/04/12 09:48:08;;;;;;;5.90;1.97;;;12.70;48.80;;;;;;4172369;28;20206;-79
2022/04/12 09:50:11;;;;;;;4.67;1.70;;;12.80;47.60;;;;;;4167247;28;20566;-82
2022/04/12 09:52:15;;;;;;;5.77;2.13;;;13.00;46.60;;;;;;4181674;28;20218;-83
2022/04/12 09:54:23;;;;;;;2.80;1.80;;;13.10;45.80;;;;;;4189865;28;20619;-80
2022/04/12 09:56:27;;;;;;;4.63;2.20;;;13.50;45.30;;;;;;4155346;28;20254;-80
2022/04/12 09:58:29;;;;;;;4.17;2.13;;;13.40;44.60;;;;;;4160156;28;20207;-80
2022/04/12 10:00:32;;;;;;;7.83;2.30;;;13.50;44.40;;;;;;4178046;28;20214;-82
2022/04/12 10:02:35;;;;;;;3.77;2.10;;;13.80;44.60;;;;;;4170452;28;20245;-82
2022/04/12 10:04:38;;;;;;;8.77;2.30;;;13.80;44.80;;;;;;4162899;28;20251;-82
2022/04/12 10:06:43;;;;;;;7.07;2.67;;;13.90;44.60;;;;;;4171241;28;20238;-82
2022/04/12 10:08:47;;;;;;;3.87;2.03;;;14.00;44.40;;;;;;4167509;28;20204;-82
2022/04/12 10:10:50;;;;;;;8.40;2.80;;;14.10;44.10;;;;;;4177842;28;20707;-81
2022/04/12 10:12:53;;;;;;;3.57;2.30;;;14.20;43.90;;;;;;4169519;28;20681;-81
2022/04/12 10:14:55;;;;;;;5.57;2.20;;;14.20;43.40;;;;;;4171726;28;20354;-80
2022/04/12 10:16:57;;;;;;;3.47;2.30;;;14.50;43.90;;;;;;4174618;28;20713;-80
2022/04/12 10:19:01;;;;;;;4.53;2.27;;;14.50;43.90;;;;;;4171557;28;20276;-81
2022/04/12 10:21:03;;;;;;;6.00;2.90;;;14.60;43.90;;;;;;4170459;28;20220;-81
2022/04/12 10:23:07;;;;;;;8.47;3.00;;;14.70;44.30;;;;;;4174462;28;20208;-81
2022/04/12 10:25:11;;;;;;;8.27;3.23;;;14.90;44.20;;;;;;4171772;28;20677;-81
2022/04/12 10:27:14;;;;;;;6.93;2.80;;;14.90;43.30;;;;;;4173963;28;20238;-81
2022/04/12 10:29:17;;;;;;;6.00;2.93;;;15.00;41.80;;;;;;4174956;28;20252;-84
2022/04/12 10:31:25;;;;;;;9.63;3.00;;;15.20;42.00;;;;;;4168431;28;20226;-81
2022/04/12 10:33:28;;;;;;;6.50;2.93;;;15.20;41.70;;;;;;4165576;28;20222;-83
2022/04/12 10:35:31;;;;;;;4.30;2.40;;;15.40;41.80;;;;;;4173077;28;20320;-83
2022/04/12 10:37:36;;;;;;;4.10;2.70;;;15.40;41.70;;;;;;4172273;28;20245;-82
2022/04/12 10:39:45;;;;;;;8.77;2.80;;;15.50;42.30;;;;;;4172791;28;20207;-82
2022/04/12 10:41:52;;;;;;;7.57;2.70;;;15.60;43.00;;;;;;4174541;28;20224;-81
2022/04/12 10:43:58;;;;;;;7.03;2.93;;;15.70;42.30;;;;;;4174629;28;20277;-81
2022/04/12 10:46:02;;;;;;;4.90;2.87;;;15.80;41.70;;;;;;4169648;28;20227;-81
2022/04/12 10:48:05;;;;;;;4.57;2.70;;;16.00;42.10;;;;;;4161327;28;20211;-81